sensor_id;sensor_type;location;lat;lon;timestamp;P1;durP1;ratioP1;P2;durP2;ratioP2
51852;SDS011;37894;53.172;6.598;2024-02-04T00:00:38;13.32;;;3.20;;
51852;SDS011;37894;53.172;6.598;2024-02-04T00:03:04;10.02;;;3.25;;
51852;SDS011;37894;53.172;6.598;2024-02-04T00:05:30;15.98;;;3.45;;
51852;SDS011;37894;53.172;6.598;2024-02-04T00:07:56;11.52;;;3.40;;
51852;SDS011;37894;53.172;6.598;2024-02-04T00:10:22;11.93;;;3.25;;
51852;SDS011;37894;53.172;6.598;2024-02-04T00:12:48;15.45;;;3.47;;
51852;SDS011;37894;53.172;6.598;2024-02-04T00:15:14;10.02;;;2.95;;
51852;SDS011;37894;53.172;6.598;2024-02-04T00:17:40;10.95;;;3.40;;
51852;SDS011;37894;53.172;6.598;2024-02-04T00:20:06;5.90;;;2.78;;
51852;SDS011;37894;53.172;6.598;2024-02-04T00:22:33;12.35;;;3.55;;
51852;SDS011;37894;53.172;6.598;2024-02-04T00:24:59;13.43;;;3.25;;
51852;SDS011;37894;53.172;6.598;2024-02-04T00:29:57;12.30;;;3.42;;
51852;SDS011;37894;53.172;6.598;2024-02-04T00:32:24;11.52;;;3.60;;
51852;SDS011;37894;53.172;6.598;2024-02-04T00:34:50;14.15;;;3.45;;
51852;SDS011;37894;53.172;6.598;2024-02-04T00:37:16;11.27;;;2.92;;
51852;SDS011;37894;53.172;6.598;2024-02-04T00:39:43;11.00;;;2.85;;
51852;SDS011;37894;53.172;6.598;2024-02-04T00:42:09;11.85;;;3.00;;
51852;SDS011;37894;53.172;6.598;2024-02-04T00:44:35;14.65;;;2.65;;
51852;SDS011;37894;53.172;6.598;2024-02-04T00:47:01;13.32;;;2.97;;
51852;SDS011;37894;53.172;6.598;2024-02-04T00:49:28;10.63;;;2.78;;
51852;SDS011;37894;53.172;6.598;2024-02-04T00:51:54;13.65;;;3.20;;
51852;SDS011;37894;53.172;6.598;2024-02-04T00:54:20;12.55;;;2.90;;
51852;SDS011;37894;53.172;6.598;2024-02-04T00:56:46;9.02;;;2.65;;
51852;SDS011;37894;53.172;6.598;2024-02-04T00:59:12;18.13;;;2.67;;
51852;SDS011;37894;53.172;6.598;2024-02-04T01:01:38;15.13;;;3.60;;
51852;SDS011;37894;53.172;6.598;2024-02-04T01:04:04;8.52;;;2.90;;
51852;SDS011;37894;53.172;6.598;2024-02-04T01:06:30;14.90;;;2.80;;
51852;SDS011;37894;53.172;6.598;2024-02-04T01:08:57;17.48;;;3.38;;
51852;SDS011;37894;53.172;6.598;2024-02-04T01:11:23;15.00;;;2.65;;
51852;SDS011;37894;53.172;6.598;2024-02-04T01:13:49;15.02;;;2.97;;
51852;SDS011;37894;53.172;6.598;2024-02-04T01:16:15;9.48;;;2.50;;
51852;SDS011;37894;53.172;6.598;2024-02-04T01:18:41;13.55;;;3.22;;
51852;SDS011;37894;53.172;6.598;2024-02-04T01:21:07;10.60;;;2.90;;
51852;SDS011;37894;53.172;6.598;2024-02-04T01:23:36;10.30;;;2.67;;
51852;SDS011;37894;53.172;6.598;2024-02-04T01:26:02;15.50;;;2.60;;
51852;SDS011;37894;53.172;6.598;2024-02-04T01:28:28;14.73;;;2.72;;
51852;SDS011;37894;53.172;6.598;2024-02-04T01:30:54;8.55;;;2.30;;
51852;SDS011;37894;53.172;6.598;2024-02-04T01:33:20;10.73;;;2.60;;
51852;SDS011;37894;53.172;6.598;2024-02-04T01:35:47;13.05;;;2.70;;
51852;SDS011;37894;53.172;6.598;2024-02-04T01:38:13;9.60;;;2.35;;
51852;SDS011;37894;53.172;6.598;2024-02-04T01:40:39;8.40;;;2.13;;
51852;SDS011;37894;53.172;6.598;2024-02-04T01:43:05;18.95;;;2.60;;
51852;SDS011;37894;53.172;6.598;2024-02-04T01:45:32;15.60;;;2.95;;
51852;SDS011;37894;53.172;6.598;2024-02-04T01:47:58;15.73;;;2.50;;
51852;SDS011;37894;53.172;6.598;2024-02-04T01:50:24;14.98;;;3.80;;
51852;SDS011;37894;53.172;6.598;2024-02-04T01:52:50;9.95;;;2.65;;
51852;SDS011;37894;53.172;6.598;2024-02-04T01:55:17;7.10;;;1.95;;
51852;SDS011;37894;53.172;6.598;2024-02-04T01:57:44;16.95;;;3.22;;
51852;SDS011;37894;53.172;6.598;2024-02-04T02:00:10;11.95;;;2.45;;
51852;SDS011;37894;53.172;6.598;2024-02-04T02:02:40;7.60;;;2.35;;
51852;SDS011;37894;53.172;6.598;2024-02-04T02:05:09;19.90;;;2.95;;
51852;SDS011;37894;53.172;6.598;2024-02-04T02:07:35;18.45;;;2.70;;
51852;SDS011;37894;53.172;6.598;2024-02-04T02:10:02;13.25;;;2.15;;
51852;SDS011;37894;53.172;6.598;2024-02-04T02:12:36;11.93;;;2.22;;
51852;SDS011;37894;53.172;6.598;2024-02-04T02:15:14;14.57;;;2.40;;
51852;SDS011;37894;53.172;6.598;2024-02-04T02:17:45;14.30;;;2.55;;
51852;SDS011;37894;53.172;6.598;2024-02-04T02:20:19;8.43;;;1.98;;
51852;SDS011;37894;53.172;6.598;2024-02-04T02:25:16;12.75;;;2.35;;
51852;SDS011;37894;53.172;6.598;2024-02-04T02:27:49;10.88;;;1.90;;
51852;SDS011;37894;53.172;6.598;2024-02-04T02:30:15;12.40;;;2.63;;
51852;SDS011;37894;53.172;6.598;2024-02-04T02:32:43;9.57;;;1.80;;
51852;SDS011;37894;53.172;6.598;2024-02-04T02:35:12;14.90;;;2.53;;
51852;SDS011;37894;53.172;6.598;2024-02-04T02:43:02;15.73;;;2.55;;
51852;SDS011;37894;53.172;6.598;2024-02-04T02:45:28;15.55;;;2.35;;
51852;SDS011;37894;53.172;6.598;2024-02-04T02:47:56;13.10;;;2.72;;
51852;SDS011;37894;53.172;6.598;2024-02-04T02:50:23;14.43;;;2.53;;
51852;SDS011;37894;53.172;6.598;2024-02-04T02:52:49;9.98;;;2.72;;
51852;SDS011;37894;53.172;6.598;2024-02-04T02:55:15;12.00;;;2.10;;
51852;SDS011;37894;53.172;6.598;2024-02-04T02:57:42;9.07;;;2.00;;
51852;SDS011;37894;53.172;6.598;2024-02-04T03:00:08;11.50;;;2.40;;
51852;SDS011;37894;53.172;6.598;2024-02-04T03:02:34;14.65;;;2.85;;
51852;SDS011;37894;53.172;6.598;2024-02-04T03:05:00;13.27;;;2.67;;
51852;SDS011;37894;53.172;6.598;2024-02-04T03:07:26;16.77;;;2.35;;
51852;SDS011;37894;53.172;6.598;2024-02-04T03:09:53;15.48;;;2.50;;
51852;SDS011;37894;53.172;6.598;2024-02-04T03:12:19;17.67;;;3.00;;
51852;SDS011;37894;53.172;6.598;2024-02-04T03:14:45;12.45;;;2.50;;
51852;SDS011;37894;53.172;6.598;2024-02-04T03:17:11;16.30;;;2.88;;
51852;SDS011;37894;53.172;6.598;2024-02-04T03:19:38;13.68;;;2.40;;
51852;SDS011;37894;53.172;6.598;2024-02-04T03:22:04;27.33;;;3.05;;
51852;SDS011;37894;53.172;6.598;2024-02-04T03:24:30;10.15;;;2.45;;
51852;SDS011;37894;53.172;6.598;2024-02-04T03:26:56;12.55;;;2.40;;
51852;SDS011;37894;53.172;6.598;2024-02-04T03:29:23;13.95;;;2.97;;
51852;SDS011;37894;53.172;6.598;2024-02-04T03:31:49;9.48;;;2.58;;
51852;SDS011;37894;53.172;6.598;2024-02-04T03:34:15;22.40;;;3.88;;
51852;SDS011;37894;53.172;6.598;2024-02-04T03:36:41;19.27;;;3.20;;
51852;SDS011;37894;53.172;6.598;2024-02-04T03:39:07;13.55;;;2.95;;
51852;SDS011;37894;53.172;6.598;2024-02-04T03:41:33;13.13;;;2.95;;
51852;SDS011;37894;53.172;6.598;2024-02-04T03:43:59;14.73;;;3.28;;
51852;SDS011;37894;53.172;6.598;2024-02-04T03:46:25;14.95;;;3.00;;
51852;SDS011;37894;53.172;6.598;2024-02-04T03:48:51;14.27;;;3.33;;
51852;SDS011;37894;53.172;6.598;2024-02-04T03:51:18;15.05;;;2.90;;
51852;SDS011;37894;53.172;6.598;2024-02-04T03:53:44;9.93;;;2.75;;
51852;SDS011;37894;53.172;6.598;2024-02-04T03:56:10;15.13;;;3.00;;
51852;SDS011;37894;53.172;6.598;2024-02-04T03:58:37;14.65;;;2.75;;
51852;SDS011;37894;53.172;6.598;2024-02-04T04:01:03;13.75;;;3.05;;
51852;SDS011;37894;53.172;6.598;2024-02-04T04:03:29;11.88;;;2.70;;
51852;SDS011;37894;53.172;6.598;2024-02-04T04:05:56;9.93;;;2.40;;
51852;SDS011;37894;53.172;6.598;2024-02-04T04:08:21;13.45;;;3.03;;
51852;SDS011;37894;53.172;6.598;2024-02-04T04:10:48;11.63;;;2.70;;
51852;SDS011;37894;53.172;6.598;2024-02-04T04:13:14;13.38;;;2.30;;
51852;SDS011;37894;53.172;6.598;2024-02-04T04:15:40;17.77;;;2.95;;
51852;SDS011;37894;53.172;6.598;2024-02-04T04:18:07;12.25;;;2.60;;
51852;SDS011;37894;53.172;6.598;2024-02-04T04:20:35;17.85;;;2.83;;
51852;SDS011;37894;53.172;6.598;2024-02-04T04:23:02;20.42;;;3.00;;
51852;SDS011;37894;53.172;6.598;2024-02-04T04:25:28;12.20;;;2.33;;
51852;SDS011;37894;53.172;6.598;2024-02-04T04:27:54;13.65;;;2.78;;
51852;SDS011;37894;53.172;6.598;2024-02-04T04:30:21;10.60;;;2.42;;
51852;SDS011;37894;53.172;6.598;2024-02-04T04:32:47;10.13;;;3.13;;
51852;SDS011;37894;53.172;6.598;2024-02-04T04:35:13;16.40;;;2.78;;
51852;SDS011;37894;53.172;6.598;2024-02-04T04:37:39;15.55;;;3.28;;
51852;SDS011;37894;53.172;6.598;2024-02-04T04:40:06;18.35;;;3.70;;
51852;SDS011;37894;53.172;6.598;2024-02-04T04:42:32;14.48;;;2.83;;
51852;SDS011;37894;53.172;6.598;2024-02-04T04:44:58;13.43;;;2.72;;
51852;SDS011;37894;53.172;6.598;2024-02-04T04:47:24;11.30;;;2.65;;
51852;SDS011;37894;53.172;6.598;2024-02-04T04:49:50;16.05;;;3.00;;
51852;SDS011;37894;53.172;6.598;2024-02-04T04:52:16;14.85;;;3.08;;
51852;SDS011;37894;53.172;6.598;2024-02-04T04:54:42;20.17;;;3.10;;
51852;SDS011;37894;53.172;6.598;2024-02-04T04:57:08;11.90;;;3.15;;
51852;SDS011;37894;53.172;6.598;2024-02-04T04:59:34;16.17;;;3.03;;
51852;SDS011;37894;53.172;6.598;2024-02-04T05:02:02;16.75;;;3.05;;
51852;SDS011;37894;53.172;6.598;2024-02-04T05:04:28;18.70;;;3.55;;
51852;SDS011;37894;53.172;6.598;2024-02-04T05:06:54;16.75;;;3.13;;
51852;SDS011;37894;53.172;6.598;2024-02-04T05:09:20;13.75;;;3.47;;
51852;SDS011;37894;53.172;6.598;2024-02-04T05:11:46;15.93;;;3.33;;
51852;SDS011;37894;53.172;6.598;2024-02-04T05:14:12;20.02;;;3.13;;
51852;SDS011;37894;53.172;6.598;2024-02-04T05:16:39;17.48;;;2.72;;
51852;SDS011;37894;53.172;6.598;2024-02-04T05:19:05;16.52;;;2.63;;
51852;SDS011;37894;53.172;6.598;2024-02-04T05:21:31;15.65;;;3.50;;
51852;SDS011;37894;53.172;6.598;2024-02-04T05:23:57;14.02;;;2.45;;
51852;SDS011;37894;53.172;6.598;2024-02-04T05:26:23;18.85;;;3.65;;
51852;SDS011;37894;53.172;6.598;2024-02-04T05:28:49;12.25;;;2.55;;
51852;SDS011;37894;53.172;6.598;2024-02-04T05:31:15;16.38;;;2.42;;
51852;SDS011;37894;53.172;6.598;2024-02-04T05:33:41;18.52;;;2.88;;
51852;SDS011;37894;53.172;6.598;2024-02-04T05:36:07;14.38;;;2.78;;
51852;SDS011;37894;53.172;6.598;2024-02-04T05:38:33;15.10;;;2.50;;
51852;SDS011;37894;53.172;6.598;2024-02-04T05:40:59;14.07;;;2.45;;
51852;SDS011;37894;53.172;6.598;2024-02-04T05:43:25;18.80;;;2.78;;
51852;SDS011;37894;53.172;6.598;2024-02-04T05:45:51;16.88;;;3.03;;
51852;SDS011;37894;53.172;6.598;2024-02-04T05:48:17;10.75;;;2.63;;
51852;SDS011;37894;53.172;6.598;2024-02-04T05:50:43;14.80;;;2.53;;
51852;SDS011;37894;53.172;6.598;2024-02-04T05:53:09;13.30;;;2.33;;
51852;SDS011;37894;53.172;6.598;2024-02-04T05:55:35;16.60;;;2.47;;
51852;SDS011;37894;53.172;6.598;2024-02-04T05:58:01;14.45;;;2.75;;
51852;SDS011;37894;53.172;6.598;2024-02-04T06:00:27;14.52;;;2.85;;
51852;SDS011;37894;53.172;6.598;2024-02-04T06:02:53;16.63;;;2.78;;
51852;SDS011;37894;53.172;6.598;2024-02-04T06:05:19;18.92;;;3.42;;
51852;SDS011;37894;53.172;6.598;2024-02-04T06:07:45;21.02;;;2.60;;
51852;SDS011;37894;53.172;6.598;2024-02-04T06:10:13;14.20;;;2.70;;
51852;SDS011;37894;53.172;6.598;2024-02-04T06:12:39;13.82;;;2.45;;
51852;SDS011;37894;53.172;6.598;2024-02-04T06:15:13;12.05;;;2.97;;
51852;SDS011;37894;53.172;6.598;2024-02-04T06:17:39;14.23;;;2.80;;
51852;SDS011;37894;53.172;6.598;2024-02-04T06:20:06;16.23;;;2.90;;
51852;SDS011;37894;53.172;6.598;2024-02-04T06:22:33;12.63;;;2.63;;
51852;SDS011;37894;53.172;6.598;2024-02-04T06:24:59;12.63;;;2.53;;
51852;SDS011;37894;53.172;6.598;2024-02-04T06:27:26;14.93;;;2.63;;
51852;SDS011;37894;53.172;6.598;2024-02-04T06:29:51;14.93;;;3.53;;
51852;SDS011;37894;53.172;6.598;2024-02-04T06:32:17;13.60;;;3.20;;
51852;SDS011;37894;53.172;6.598;2024-02-04T06:34:45;14.00;;;2.92;;
51852;SDS011;37894;53.172;6.598;2024-02-04T06:37:11;19.85;;;3.97;;
51852;SDS011;37894;53.172;6.598;2024-02-04T06:39:38;15.98;;;2.88;;
51852;SDS011;37894;53.172;6.598;2024-02-04T06:42:04;16.05;;;3.08;;
51852;SDS011;37894;53.172;6.598;2024-02-04T06:44:30;13.38;;;2.33;;
51852;SDS011;37894;53.172;6.598;2024-02-04T06:46:56;15.38;;;2.83;;
51852;SDS011;37894;53.172;6.598;2024-02-04T06:49:22;12.70;;;2.83;;
51852;SDS011;37894;53.172;6.598;2024-02-04T06:51:48;14.93;;;2.53;;
51852;SDS011;37894;53.172;6.598;2024-02-04T06:54:15;12.32;;;3.45;;
51852;SDS011;37894;53.172;6.598;2024-02-04T06:56:41;14.00;;;2.65;;
51852;SDS011;37894;53.172;6.598;2024-02-04T06:59:07;13.38;;;3.00;;
51852;SDS011;37894;53.172;6.598;2024-02-04T07:01:33;16.00;;;2.55;;
51852;SDS011;37894;53.172;6.598;2024-02-04T07:03:59;22.90;;;3.38;;
51852;SDS011;37894;53.172;6.598;2024-02-04T07:06:26;13.80;;;2.70;;
51852;SDS011;37894;53.172;6.598;2024-02-04T07:08:52;12.52;;;2.20;;
51852;SDS011;37894;53.172;6.598;2024-02-04T07:11:18;17.48;;;3.33;;
51852;SDS011;37894;53.172;6.598;2024-02-04T07:13:44;13.00;;;2.35;;
51852;SDS011;37894;53.172;6.598;2024-02-04T07:16:10;16.38;;;3.35;;
51852;SDS011;37894;53.172;6.598;2024-02-04T07:18:36;14.77;;;3.70;;
51852;SDS011;37894;53.172;6.598;2024-02-04T07:21:02;13.85;;;2.72;;
51852;SDS011;37894;53.172;6.598;2024-02-04T07:23:28;16.15;;;3.38;;
51852;SDS011;37894;53.172;6.598;2024-02-04T07:25:54;17.98;;;2.72;;
51852;SDS011;37894;53.172;6.598;2024-02-04T07:28:20;14.45;;;3.53;;
51852;SDS011;37894;53.172;6.598;2024-02-04T07:30:47;19.20;;;3.05;;
51852;SDS011;37894;53.172;6.598;2024-02-04T07:33:13;14.90;;;3.60;;
51852;SDS011;37894;53.172;6.598;2024-02-04T07:35:39;14.55;;;2.67;;
51852;SDS011;37894;53.172;6.598;2024-02-04T07:38:05;16.75;;;2.80;;
51852;SDS011;37894;53.172;6.598;2024-02-04T07:40:31;19.33;;;2.72;;
51852;SDS011;37894;53.172;6.598;2024-02-04T07:42:57;19.73;;;3.03;;
51852;SDS011;37894;53.172;6.598;2024-02-04T07:45:23;21.33;;;4.30;;
51852;SDS011;37894;53.172;6.598;2024-02-04T07:47:49;11.27;;;3.08;;
51852;SDS011;37894;53.172;6.598;2024-02-04T07:50:16;10.50;;;2.40;;
51852;SDS011;37894;53.172;6.598;2024-02-04T07:52:42;16.08;;;2.97;;
51852;SDS011;37894;53.172;6.598;2024-02-04T07:55:08;11.75;;;2.45;;
51852;SDS011;37894;53.172;6.598;2024-02-04T07:57:35;12.07;;;2.55;;
51852;SDS011;37894;53.172;6.598;2024-02-04T08:00:01;13.73;;;2.92;;
51852;SDS011;37894;53.172;6.598;2024-02-04T08:02:30;15.55;;;2.85;;
51852;SDS011;37894;53.172;6.598;2024-02-04T08:04:56;13.95;;;2.60;;
51852;SDS011;37894;53.172;6.598;2024-02-04T08:07:22;20.17;;;3.30;;
51852;SDS011;37894;53.172;6.598;2024-02-04T08:09:48;22.40;;;3.50;;
51852;SDS011;37894;53.172;6.598;2024-02-04T08:12:16;18.73;;;3.40;;
51852;SDS011;37894;53.172;6.598;2024-02-04T08:14:42;19.35;;;3.53;;
51852;SDS011;37894;53.172;6.598;2024-02-04T08:17:08;13.18;;;3.03;;
51852;SDS011;37894;53.172;6.598;2024-02-04T08:19:34;10.57;;;2.30;;
51852;SDS011;37894;53.172;6.598;2024-02-04T08:22:00;13.93;;;2.95;;
51852;SDS011;37894;53.172;6.598;2024-02-04T08:24:26;18.48;;;3.17;;
51852;SDS011;37894;53.172;6.598;2024-02-04T08:26:54;15.73;;;2.63;;
51852;SDS011;37894;53.172;6.598;2024-02-04T08:29:20;10.40;;;2.65;;
51852;SDS011;37894;53.172;6.598;2024-02-04T08:31:46;13.20;;;3.38;;
51852;SDS011;37894;53.172;6.598;2024-02-04T08:34:13;11.23;;;2.88;;
51852;SDS011;37894;53.172;6.598;2024-02-04T08:36:39;12.20;;;3.53;;
51852;SDS011;37894;53.172;6.598;2024-02-04T08:39:05;13.48;;;2.92;;
51852;SDS011;37894;53.172;6.598;2024-02-04T08:41:30;16.98;;;3.22;;
51852;SDS011;37894;53.172;6.598;2024-02-04T08:43:56;11.43;;;2.40;;
51852;SDS011;37894;53.172;6.598;2024-02-04T08:46:22;10.82;;;2.90;;
51852;SDS011;37894;53.172;6.598;2024-02-04T08:48:48;13.48;;;2.72;;
51852;SDS011;37894;53.172;6.598;2024-02-04T08:51:14;8.05;;;2.90;;
51852;SDS011;37894;53.172;6.598;2024-02-04T08:53:41;18.05;;;3.33;;
51852;SDS011;37894;53.172;6.598;2024-02-04T08:56:08;12.13;;;3.03;;
51852;SDS011;37894;53.172;6.598;2024-02-04T08:58:36;12.02;;;3.00;;
51852;SDS011;37894;53.172;6.598;2024-02-04T09:01:03;10.85;;;2.38;;
51852;SDS011;37894;53.172;6.598;2024-02-04T09:03:30;11.90;;;3.20;;
51852;SDS011;37894;53.172;6.598;2024-02-04T09:05:56;11.70;;;3.05;;
51852;SDS011;37894;53.172;6.598;2024-02-04T09:08:22;17.95;;;2.88;;
51852;SDS011;37894;53.172;6.598;2024-02-04T09:10:48;13.52;;;3.00;;
51852;SDS011;37894;53.172;6.598;2024-02-04T09:13:14;17.70;;;3.47;;
51852;SDS011;37894;53.172;6.598;2024-02-04T09:15:40;9.75;;;2.83;;
51852;SDS011;37894;53.172;6.598;2024-02-04T09:18:06;14.98;;;3.13;;
51852;SDS011;37894;53.172;6.598;2024-02-04T09:20:32;17.55;;;3.65;;
51852;SDS011;37894;53.172;6.598;2024-02-04T09:22:58;14.07;;;2.90;;
51852;SDS011;37894;53.172;6.598;2024-02-04T09:25:24;9.30;;;2.58;;
51852;SDS011;37894;53.172;6.598;2024-02-04T09:27:50;13.43;;;3.15;;
51852;SDS011;37894;53.172;6.598;2024-02-04T09:30:16;12.77;;;2.80;;
51852;SDS011;37894;53.172;6.598;2024-02-04T09:32:42;11.55;;;3.17;;
51852;SDS011;37894;53.172;6.598;2024-02-04T09:35:08;7.53;;;2.80;;
51852;SDS011;37894;53.172;6.598;2024-02-04T09:37:34;9.85;;;2.83;;
51852;SDS011;37894;53.172;6.598;2024-02-04T09:40:00;10.10;;;3.33;;
51852;SDS011;37894;53.172;6.598;2024-02-04T09:42:26;12.68;;;2.30;;
51852;SDS011;37894;53.172;6.598;2024-02-04T09:44:54;9.40;;;2.40;;
51852;SDS011;37894;53.172;6.598;2024-02-04T09:47:20;12.10;;;2.60;;
51852;SDS011;37894;53.172;6.598;2024-02-04T09:49:46;9.77;;;2.38;;
51852;SDS011;37894;53.172;6.598;2024-02-04T09:52:13;13.70;;;3.00;;
51852;SDS011;37894;53.172;6.598;2024-02-04T09:54:45;9.67;;;2.20;;
51852;SDS011;37894;53.172;6.598;2024-02-04T09:57:13;14.40;;;2.75;;
51852;SDS011;37894;53.172;6.598;2024-02-04T09:59:43;8.95;;;2.60;;
51852;SDS011;37894;53.172;6.598;2024-02-04T10:02:09;11.50;;;2.70;;
51852;SDS011;37894;53.172;6.598;2024-02-04T10:04:36;9.90;;;2.38;;
51852;SDS011;37894;53.172;6.598;2024-02-04T10:07:02;9.10;;;2.72;;
51852;SDS011;37894;53.172;6.598;2024-02-04T10:09:27;11.10;;;2.22;;
51852;SDS011;37894;53.172;6.598;2024-02-04T10:11:55;13.98;;;2.65;;
51852;SDS011;37894;53.172;6.598;2024-02-04T10:14:21;12.65;;;3.33;;
51852;SDS011;37894;53.172;6.598;2024-02-04T10:16:47;10.18;;;2.15;;
51852;SDS011;37894;53.172;6.598;2024-02-04T10:19:13;9.77;;;2.33;;
51852;SDS011;37894;53.172;6.598;2024-02-04T10:21:39;11.45;;;2.60;;
51852;SDS011;37894;53.172;6.598;2024-02-04T10:24:05;13.10;;;2.58;;
51852;SDS011;37894;53.172;6.598;2024-02-04T10:26:32;16.95;;;2.63;;
51852;SDS011;37894;53.172;6.598;2024-02-04T10:29:00;13.75;;;2.85;;
51852;SDS011;37894;53.172;6.598;2024-02-04T10:31:26;11.23;;;2.42;;
51852;SDS011;37894;53.172;6.598;2024-02-04T10:33:52;11.20;;;1.88;;
51852;SDS011;37894;53.172;6.598;2024-02-04T10:36:19;11.18;;;2.45;;
51852;SDS011;37894;53.172;6.598;2024-02-04T10:38:45;10.23;;;2.15;;
51852;SDS011;37894;53.172;6.598;2024-02-04T10:41:13;7.65;;;2.08;;
51852;SDS011;37894;53.172;6.598;2024-02-04T10:43:41;8.27;;;2.30;;
51852;SDS011;37894;53.172;6.598;2024-02-04T10:46:09;18.55;;;2.90;;
51852;SDS011;37894;53.172;6.598;2024-02-04T10:48:38;11.57;;;2.13;;
51852;SDS011;37894;53.172;6.598;2024-02-04T10:51:12;14.48;;;2.03;;
51852;SDS011;37894;53.172;6.598;2024-02-04T10:53:42;9.60;;;2.13;;
51852;SDS011;37894;53.172;6.598;2024-02-04T10:56:29;9.75;;;1.92;;
51852;SDS011;37894;53.172;6.598;2024-02-04T10:58:57;16.13;;;3.15;;
51852;SDS011;37894;53.172;6.598;2024-02-04T11:01:25;10.63;;;2.20;;
51852;SDS011;37894;53.172;6.598;2024-02-04T11:03:51;7.32;;;2.22;;
51852;SDS011;37894;53.172;6.598;2024-02-04T11:06:20;9.90;;;2.17;;
51852;SDS011;37894;53.172;6.598;2024-02-04T11:08:47;10.25;;;2.25;;
51852;SDS011;37894;53.172;6.598;2024-02-04T11:11:13;8.95;;;1.73;;
51852;SDS011;37894;53.172;6.598;2024-02-04T11:13:39;12.57;;;2.28;;
51852;SDS011;37894;53.172;6.598;2024-02-04T11:16:11;9.55;;;2.03;;
51852;SDS011;37894;53.172;6.598;2024-02-04T11:22:33;6.65;;;1.85;;
51852;SDS011;37894;53.172;6.598;2024-02-04T11:25:43;14.02;;;1.75;;
51852;SDS011;37894;53.172;6.598;2024-02-04T11:28:10;11.48;;;1.88;;
51852;SDS011;37894;53.172;6.598;2024-02-04T11:30:37;12.52;;;2.03;;
51852;SDS011;37894;53.172;6.598;2024-02-04T11:33:03;8.52;;;1.63;;
51852;SDS011;37894;53.172;6.598;2024-02-04T11:35:30;8.27;;;1.58;;
51852;SDS011;37894;53.172;6.598;2024-02-04T11:37:57;10.25;;;1.90;;
51852;SDS011;37894;53.172;6.598;2024-02-04T11:40:23;10.32;;;2.63;;
51852;SDS011;37894;53.172;6.598;2024-02-04T11:43:11;8.75;;;1.60;;
51852;SDS011;37894;53.172;6.598;2024-02-04T11:45:39;10.15;;;1.90;;
51852;SDS011;37894;53.172;6.598;2024-02-04T11:48:12;9.30;;;2.22;;
51852;SDS011;37894;53.172;6.598;2024-02-04T11:50:38;14.25;;;2.80;;
51852;SDS011;37894;53.172;6.598;2024-02-04T11:53:11;8.80;;;1.98;;
51852;SDS011;37894;53.172;6.598;2024-02-04T11:55:41;7.25;;;1.75;;
51852;SDS011;37894;53.172;6.598;2024-02-04T11:58:08;9.52;;;2.40;;
51852;SDS011;37894;53.172;6.598;2024-02-04T12:00:36;8.90;;;2.13;;
51852;SDS011;37894;53.172;6.598;2024-02-04T12:03:06;10.38;;;2.13;;
51852;SDS011;37894;53.172;6.598;2024-02-04T12:05:34;14.90;;;2.92;;
51852;SDS011;37894;53.172;6.598;2024-02-04T12:08:04;12.70;;;2.03;;
51852;SDS011;37894;53.172;6.598;2024-02-04T12:10:32;9.07;;;2.42;;
51852;SDS011;37894;53.172;6.598;2024-02-04T12:12:59;8.13;;;1.85;;
51852;SDS011;37894;53.172;6.598;2024-02-04T12:15:28;6.25;;;2.08;;
51852;SDS011;37894;53.172;6.598;2024-02-04T12:17:54;7.95;;;2.60;;
51852;SDS011;37894;53.172;6.598;2024-02-04T12:20:20;9.13;;;2.00;;
51852;SDS011;37894;53.172;6.598;2024-02-04T12:22:46;7.57;;;2.40;;
51852;SDS011;37894;53.172;6.598;2024-02-04T12:25:14;7.00;;;2.35;;
51852;SDS011;37894;53.172;6.598;2024-02-04T12:27:41;11.85;;;2.63;;
51852;SDS011;37894;53.172;6.598;2024-02-04T12:30:08;10.48;;;2.00;;
51852;SDS011;37894;53.172;6.598;2024-02-04T12:32:34;11.18;;;3.00;;
51852;SDS011;37894;53.172;6.598;2024-02-04T12:35:01;8.75;;;1.83;;
51852;SDS011;37894;53.172;6.598;2024-02-04T12:37:27;7.25;;;1.70;;
51852;SDS011;37894;53.172;6.598;2024-02-04T12:39:55;9.75;;;2.08;;
51852;SDS011;37894;53.172;6.598;2024-02-04T12:42:21;6.68;;;1.52;;
51852;SDS011;37894;53.172;6.598;2024-02-04T12:44:48;13.57;;;1.98;;
51852;SDS011;37894;53.172;6.598;2024-02-04T12:47:14;6.97;;;1.60;;
51852;SDS011;37894;53.172;6.598;2024-02-04T12:49:47;6.80;;;1.67;;
51852;SDS011;37894;53.172;6.598;2024-02-04T12:52:13;6.05;;;1.63;;
51852;SDS011;37894;53.172;6.598;2024-02-04T12:54:45;9.88;;;1.85;;
51852;SDS011;37894;53.172;6.598;2024-02-04T12:59:46;5.53;;;1.40;;
51852;SDS011;37894;53.172;6.598;2024-02-04T13:02:13;9.98;;;1.92;;
51852;SDS011;37894;53.172;6.598;2024-02-04T13:04:40;5.15;;;1.40;;
51852;SDS011;37894;53.172;6.598;2024-02-04T13:07:10;6.28;;;1.23;;
51852;SDS011;37894;53.172;6.598;2024-02-04T13:09:42;8.38;;;1.95;;
51852;SDS011;37894;53.172;6.598;2024-02-04T13:12:09;7.35;;;1.60;;
51852;SDS011;37894;53.172;6.598;2024-02-04T13:14:35;9.27;;;2.55;;
51852;SDS011;37894;53.172;6.598;2024-02-04T13:17:04;7.40;;;1.58;;
51852;SDS011;37894;53.172;6.598;2024-02-04T13:19:32;6.55;;;1.90;;
51852;SDS011;37894;53.172;6.598;2024-02-04T13:22:04;7.68;;;1.17;;
51852;SDS011;37894;53.172;6.598;2024-02-04T13:24:39;10.15;;;1.60;;
51852;SDS011;37894;53.172;6.598;2024-02-04T13:27:05;6.03;;;1.48;;
51852;SDS011;37894;53.172;6.598;2024-02-04T13:29:37;7.28;;;1.58;;
51852;SDS011;37894;53.172;6.598;2024-02-04T13:32:03;6.40;;;1.65;;
51852;SDS011;37894;53.172;6.598;2024-02-04T13:34:29;8.18;;;1.75;;
51852;SDS011;37894;53.172;6.598;2024-02-04T13:36:55;8.02;;;1.65;;
51852;SDS011;37894;53.172;6.598;2024-02-04T13:39:21;8.30;;;1.48;;
51852;SDS011;37894;53.172;6.598;2024-02-04T13:41:47;9.85;;;1.63;;
51852;SDS011;37894;53.172;6.598;2024-02-04T13:44:13;9.98;;;1.70;;
51852;SDS011;37894;53.172;6.598;2024-02-04T13:46:39;11.20;;;2.00;;
51852;SDS011;37894;53.172;6.598;2024-02-04T13:49:07;8.27;;;1.80;;
51852;SDS011;37894;53.172;6.598;2024-02-04T13:51:34;5.03;;;1.50;;
51852;SDS011;37894;53.172;6.598;2024-02-04T13:54:01;8.55;;;1.60;;
51852;SDS011;37894;53.172;6.598;2024-02-04T13:56:26;7.10;;;1.52;;
51852;SDS011;37894;53.172;6.598;2024-02-04T13:58:54;6.57;;;1.27;;
51852;SDS011;37894;53.172;6.598;2024-02-04T14:01:21;4.50;;;1.52;;
51852;SDS011;37894;53.172;6.598;2024-02-04T14:03:48;8.50;;;1.48;;
51852;SDS011;37894;53.172;6.598;2024-02-04T14:06:15;5.43;;;1.40;;
51852;SDS011;37894;53.172;6.598;2024-02-04T14:08:41;11.55;;;2.17;;
51852;SDS011;37894;53.172;6.598;2024-02-04T14:11:07;7.50;;;1.83;;
51852;SDS011;37894;53.172;6.598;2024-02-04T14:13:32;5.50;;;1.70;;
51852;SDS011;37894;53.172;6.598;2024-02-04T14:15:59;8.07;;;1.83;;
51852;SDS011;37894;53.172;6.598;2024-02-04T14:18:26;6.68;;;1.50;;
51852;SDS011;37894;53.172;6.598;2024-02-04T14:20:51;8.25;;;1.60;;
51852;SDS011;37894;53.172;6.598;2024-02-04T14:23:17;8.95;;;1.92;;
51852;SDS011;37894;53.172;6.598;2024-02-04T14:25:43;6.85;;;2.15;;
51852;SDS011;37894;53.172;6.598;2024-02-04T14:28:11;6.72;;;1.60;;
51852;SDS011;37894;53.172;6.598;2024-02-04T14:30:37;8.68;;;1.70;;
51852;SDS011;37894;53.172;6.598;2024-02-04T14:33:03;5.40;;;1.58;;
51852;SDS011;37894;53.172;6.598;2024-02-04T14:35:29;7.32;;;1.88;;
51852;SDS011;37894;53.172;6.598;2024-02-04T14:37:55;8.55;;;1.65;;
51852;SDS011;37894;53.172;6.598;2024-02-04T14:40:21;9.52;;;2.88;;
51852;SDS011;37894;53.172;6.598;2024-02-04T14:42:47;8.40;;;2.03;;
51852;SDS011;37894;53.172;6.598;2024-02-04T14:45:13;7.53;;;2.13;;
51852;SDS011;37894;53.172;6.598;2024-02-04T14:47:39;11.00;;;2.85;;
51852;SDS011;37894;53.172;6.598;2024-02-04T14:50:05;10.38;;;2.28;;
51852;SDS011;37894;53.172;6.598;2024-02-04T14:52:31;9.20;;;2.20;;